Time;durP1;ratioP1;P1;durP2;ratioP2;P2;SDS_P1;SDS_P2;PMS_P1;PMS_P2;Temp;Humidity;BMP_temperature;BMP_pressure;BME280_temperature;BME280_humidity;BME280_pressure;Samples;Min_cycle;Max_cycle;Signal;HPM_P1;HPM_P2
2022/01/17 00:01:13;;;;;;;35.60;18.60;;;;;;;-0.13;89.89;98552.55;105706;1278;137844;-79
2022/01/17 00:03:40;;;;;;;35.00;18.00;;;;;;;-0.14;89.97;98548.86;105547;1277;24266;-79
2022/01/17 00:06:08;;;;;;;35.70;16.40;;;;;;;-0.13;90.22;98540.60;105724;1278;25621;-79
2022/01/17 00:08:35;;;;;;;35.50;19.00;;;;;;;-0.13;90.04;98544.45;105791;1277;138266;-78
2022/01/17 00:11:04;;;;;;;33.60;17.50;;;;;;;-0.13;90.05;98544.86;105855;1278;22531;-79
2022/01/17 00:13:30;;;;;;;36.80;18.50;;;;;;;-0.15;90.18;98546.09;105820;1277;137860;-78
2022/01/17 00:21:17;;;;;;;38.90;18.70;;;;;;;-0.12;90.53;98538.30;105870;1278;24438;-78
2022/01/17 00:23:44;;;;;;;31.40;17.10;;;;;;;-0.11;90.39;98540.32;105943;1280;22551;-78
2022/01/17 00:26:11;;;;;;;34.70;18.00;;;;;;;-0.11;90.55;98539.46;105792;1278;137760;-77
2022/01/17 00:28:37;;;;;;;34.50;16.70;;;;;;;-0.12;90.56;98538.79;106074;1277;22550;-78
2022/01/17 00:31:05;;;;;;;30.00;16.50;;;;;;;-0.11;90.44;98537.08;105955;1277;138766;-78
2022/01/17 00:33:32;;;;;;;28.90;15.20;;;;;;;-0.09;90.67;98533.13;105833;1277;22720;-78
2022/01/17 00:35:59;;;;;;;25.20;14.30;;;;;;;-0.08;90.73;98529.80;105908;1277;24222;-78
2022/01/17 00:38:25;;;;;;;27.20;15.50;;;;;;;-0.09;90.62;98528.84;105812;1280;137919;-78
2022/01/17 00:40:51;;;;;;;29.10;15.90;;;;;;;-0.10;90.62;98524.57;105898;1280;22612;-78
2022/01/17 00:43:17;;;;;;;28.50;14.70;;;;;;;-0.11;90.74;98529.61;105794;1277;138521;-78
2022/01/17 00:45:45;;;;;;;27.10;15.00;;;;;;;-0.10;91.02;98524.91;106141;1280;22653;-78
2022/01/17 00:48:11;;;;;;;23.70;14.00;;;;;;;-0.09;90.93;98527.11;106616;1277;24329;-79
2022/01/17 00:50:39;;;;;;;24.30;12.40;;;;;;;-0.08;91.16;98526.26;106311;1280;137892;-78
2022/01/17 00:53:07;;;;;;;24.60;14.50;;;;;;;-0.08;91.06;98527.36;105808;1277;24372;-78
2022/01/17 00:55:35;;;;;;;25.60;13.50;;;;;;;-0.07;91.17;98518.65;105953;1277;138270;-78
2022/01/17 00:58:02;;;;;;;23.40;13.80;;;;;;;-0.06;91.06;98523.66;106012;1277;23947;-77
2022/01/17 01:00:29;;;;;;;18.10;12.20;;;;;;;-0.05;91.26;98522.17;105856;1278;138486;-78
2022/01/17 01:02:56;;;;;;;19.00;12.10;;;;;;;-0.02;91.24;98512.23;105943;1277;22556;-77
2022/01/17 01:05:22;;;;;;;19.00;11.60;;;;;;;-0.02;91.13;98505.82;106172;1280;24373;-78
2022/01/17 01:07:50;;;;;;;21.30;12.10;;;;;;;-0.03;91.22;98511.61;105990;1277;138174;-78
2022/01/17 01:10:17;;;;;;;20.00;12.00;;;;;;;-0.05;91.36;98504.34;106145;1277;25423;-77
2022/01/17 01:12:46;;;;;;;19.40;11.80;;;;;;;-0.04;91.29;98498.99;106024;1277;138743;-78
2022/01/17 01:15:19;;;;;;;20.20;12.00;;;;;;;-0.02;91.45;98495.98;105902;1280;23064;-78
2022/01/17 01:17:50;;;;;;;21.20;12.30;;;;;;;-0.01;91.28;98502.05;105933;1277;23122;-78
2022/01/17 01:28:35;;;;;;;18.60;11.80;;;;;;;0.07;91.47;98474.02;105919;1278;23711;-77
2022/01/17 01:31:06;;;;;;;18.70;12.00;;;;;;;0.10;91.33;98475.85;105939;1277;138079;-77
2022/01/17 01:33:36;;;;;;;21.10;11.90;;;;;;;0.10;91.15;98475.45;105876;1280;22566;-77
2022/01/17 01:36:16;;;;;;;16.70;10.80;;;;;;;0.12;91.17;98472.59;106130;1278;22547;-77
2022/01/17 01:38:43;;;;;;;17.70;11.30;;;;;;;0.14;91.29;98470.46;106285;1277;138269;-77
2022/01/17 01:41:09;;;;;;;15.50;9.60;;;;;;;0.17;91.24;98468.71;105941;1280;22700;-77
2022/01/17 01:43:36;;;;;;;16.20;9.90;;;;;;;0.20;91.17;98465.01;106067;1277;137622;-77
2022/01/17 01:46:02;;;;;;;18.60;10.70;;;;;;;0.23;91.15;98457.59;106033;1278;22568;-77
2022/01/17 01:48:32;;;;;;;18.70;11.50;;;;;;;0.23;91.10;98458.60;106465;1277;137899;-75
2022/01/17 01:50:58;;;;;;;17.10;10.00;;;;;;;0.26;91.10;98454.92;105995;1277;22749;-78
2022/01/17 01:53:25;;;;;;;17.40;9.30;;;;;;;0.28;90.91;98450.73;106051;1277;22556;-78
2022/01/17 01:55:55;;;;;;;15.30;9.20;;;;;;;0.30;91.04;98437.66;105821;1281;137820;-78
2022/01/17 01:58:23;;;;;;;17.90;10.80;;;;;;;0.30;90.90;98424.96;106390;1277;22547;-77
2022/01/17 02:00:51;;;;;;;16.70;10.60;;;;;;;0.30;90.96;98419.11;105953;1277;138033;-77
2022/01/17 02:03:17;;;;;;;15.60;10.20;;;;;;;0.32;90.80;98416.34;105860;1280;25261;-77
2022/01/17 02:05:44;;;;;;;16.40;9.00;;;;;;;0.34;90.88;98405.77;106188;1277;22550;-77
2022/01/17 02:08:11;;;;;;;18.10;10.50;;;;;;;0.35;90.60;98400.91;105922;1278;137347;-77
2022/01/17 02:10:38;;;;;;;17.00;9.70;;;;;;;0.36;90.55;98402.05;105931;1278;25316;-77
2022/01/17 02:13:04;;;;;;;17.70;11.40;;;;;;;0.37;90.79;98400.94;105915;1277;137583;-77
2022/01/17 02:15:31;;;;;;;16.70;10.80;;;;;;;0.37;90.75;98392.56;105898;1277;22561;-77
2022/01/17 02:17:58;;;;;;;20.30;11.90;;;;;;;0.37;90.61;98383.45;105922;1278;22826;-77
2022/01/17 02:20:35;;;;;;;18.30;11.10;;;;;;;0.39;90.36;98383.92;105926;1278;137968;-77
2022/01/17 02:23:04;;;;;;;18.50;10.50;;;;;;;0.39;90.77;98389.39;106348;1277;25357;-77
2022/01/17 02:25:31;;;;;;;15.60;10.20;;;;;;;0.39;90.60;98387.83;105839;1277;137765;-77
2022/01/17 02:27:57;;;;;;;21.90;13.00;;;;;;;0.38;90.64;98384.72;105905;1278;22658;-77
2022/01/17 02:30:26;;;;;;;19.90;12.30;;;;;;;0.38;90.48;98366.70;106003;1277;25381;-76
2022/01/17 02:32:53;;;;;;;16.60;11.20;;;;;;;0.37;90.38;98370.70;105804;1278;138126;-78
2022/01/17 02:35:22;;;;;;;18.40;10.60;;;;;;;0.38;90.38;98359.67;105993;1277;25372;-78
2022/01/17 02:37:50;;;;;;;15.30;10.60;;;;;;;0.39;90.51;98361.20;105743;1278;138417;-78
2022/01/17 02:40:18;;;;;;;23.60;12.20;;;;;;;0.39;90.44;98358.20;105991;1281;22554;-76
2022/01/17 02:42:56;;;;;;;18.50;10.90;;;;;;;0.39;90.22;98353.88;105867;1277;138486;-77
2022/01/17 02:45:36;;;;;;;16.90;10.70;;;;;;;0.39;90.28;98340.88;105952;1281;24305;-76
2022/01/17 02:48:08;;;;;;;17.60;11.40;;;;;;;0.42;90.19;98337.38;106046;1278;22703;-77
2022/01/17 02:50:36;;;;;;;19.50;10.10;;;;;;;0.42;90.19;98336.27;106093;1278;137713;-76
2022/01/17 02:53:05;;;;;;;18.10;11.10;;;;;;;0.42;90.00;98331.23;105838;1281;24409;-76
2022/01/17 02:55:31;;;;;;;;;;;;;;;0.42;89.98;98321.19;105916;1277;138584;-76
2022/01/17 02:57:58;;;;;;;16.70;10.60;;;;;;;0.44;90.04;98322.82;106055;1277;24512;-77
2022/01/17 03:00:25;;;;;;;16.00;10.70;;;;;;;0.45;90.02;98326.79;105965;1278;22717;-77
2022/01/17 03:02:51;;;;;;;15.50;9.80;;;;;;;0.45;90.01;98326.19;105930;1278;137391;-77
2022/01/17 03:05:20;;;;;;;12.90;8.60;;;;;;;0.44;89.67;98319.90;106044;1278;24303;-77
2022/01/17 03:07:48;;;;;;;14.30;9.40;;;;;;;0.45;89.72;98330.14;106007;1277;138171;-76
2022/01/17 03:10:39;;;;;;;14.50;8.90;;;;;;;0.47;89.54;98335.64;106024;1277;22561;-77
2022/01/17 03:13:18;;;;;;;11.70;7.80;;;;;;;0.50;89.41;98340.51;105918;1277;138051;-77
2022/01/17 03:15:46;;;;;;;;;;;;;;;0.52;89.17;98338.52;106123;1278;22686;-77
2022/01/17 03:18:13;;;;;;;12.40;7.60;;;;;;;0.54;89.23;98336.98;106210;1278;25263;-76
2022/01/17 03:20:39;;;;;;;16.00;9.10;;;;;;;0.54;89.14;98330.65;105838;1281;137902;-76
2022/01/17 03:23:07;;;;;;;14.40;8.40;;;;;;;0.57;88.95;98327.17;106086;1277;25501;-77
2022/01/17 03:25:34;;;;;;;10.60;7.30;;;;;;;0.60;88.75;98321.27;106025;1278;137797;-77
2022/01/17 03:28:00;;;;;;;10.60;6.60;;;;;;;0.63;88.84;98317.85;106293;1277;24291;-76
2022/01/17 03:30:28;;;;;;;11.10;7.10;;;;;;;0.64;88.56;98314.66;106079;1277;22548;-77
2022/01/17 03:32:54;;;;;;;13.10;8.70;;;;;;;0.65;88.60;98306.35;106082;1277;137434;-76
2022/01/17 03:35:20;;;;;;;11.10;7.50;;;;;;;0.67;88.36;98298.98;105858;1281;22584;-76
2022/01/17 03:37:47;;;;;;;10.90;7.10;;;;;;;0.68;88.45;98292.00;106083;1277;138357;-76
2022/01/17 03:40:14;;;;;;;12.50;7.10;;;;;;;0.70;88.29;98296.80;105789;1279;23208;-76
2022/01/17 03:42:40;;;;;;;11.20;7.00;;;;;;;0.70;88.34;98289.23;105795;1277;137736;-76
2022/01/17 03:45:08;;;;;;;11.30;7.40;;;;;;;0.70;88.30;98292.08;106144;1277;22632;-76
2022/01/17 03:47:39;;;;;;;12.70;7.70;;;;;;;0.71;88.25;98294.52;106116;1278;22602;-76
2022/01/17 03:50:11;;;;;;;11.60;7.10;;;;;;;0.72;88.29;98295.14;105835;1281;138345;-76
2022/01/17 03:52:39;;;;;;;10.10;6.00;;;;;;;0.73;88.26;98287.42;105966;1278;22588;-76
2022/01/17 03:55:08;;;;;;;10.20;6.90;;;;;;;0.74;88.38;98288.61;105825;1278;137869;-76
2022/01/17 03:57:35;;;;;;;10.20;6.40;;;;;;;0.73;88.55;98281.76;106028;1277;23020;-76
2022/01/17 04:00:05;;;;;;;12.60;8.30;;;;;;;0.71;88.78;98270.58;105990;1280;24233;-76
2022/01/17 04:02:39;;;;;;;11.80;7.90;;;;;;;0.69;88.73;98270.91;106095;1277;138415;-76
2022/01/17 04:05:07;;;;;;;9.60;6.30;;;;;;;0.68;88.84;98267.72;106282;1277;24288;-78
2022/01/17 04:07:33;;;;;;;13.40;7.80;;;;;;;0.67;89.41;98268.08;105780;1277;138202;-76
2022/01/17 04:09:59;;;;;;;12.20;7.70;;;;;;;0.66;89.15;98269.76;105950;1277;22753;-76
2022/01/17 04:12:25;;;;;;;13.70;8.60;;;;;;;0.65;89.36;98267.19;106004;1277;22714;-76
2022/01/17 04:14:54;;;;;;;13.80;8.50;;;;;;;0.64;89.37;98264.23;105808;1277;138067;-76
2022/01/17 04:17:28;;;;;;;12.00;7.90;;;;;;;0.64;89.60;98268.70;106160;1277;22762;-76
2022/01/17 04:20:07;;;;;;;14.10;8.80;;;;;;;0.63;89.64;98268.14;105931;1277;138708;-78
2022/01/17 04:22:36;;;;;;;;;;;;;;;0.63;89.71;98267.98;106046;1281;24199;-78
2022/01/17 04:25:04;;;;;;;13.60;8.90;;;;;;;0.62;89.73;98261.32;105989;1277;123827;-78
2022/01/17 04:27:31;;;;;;;17.00;10.30;;;;;;;0.61;89.98;98265.77;105870;1278;24258;-78
2022/01/17 04:29:58;;;;;;;13.20;8.70;;;;;;;0.60;90.11;98272.06;106018;1277;24374;-78
2022/01/17 04:32:24;;;;;;;16.30;9.50;;;;;;;0.59;89.97;98277.57;105724;1277;138152;-78
2022/01/17 04:34:50;;;;;;;16.30;9.30;;;;;;;0.60;89.95;98280.84;105848;1277;22642;-76
2022/01/17 04:37:17;;;;;;;13.50;8.80;;;;;;;0.62;90.11;98281.86;105688;1278;137847;-77
2022/01/17 04:39:43;;;;;;;15.30;9.40;;;;;;;0.63;90.22;98274.58;105747;1278;24427;-78
2022/01/17 04:42:13;;;;;;;16.90;10.80;;;;;;;0.63;90.37;98279.60;105824;1277;24271;-74
2022/01/17 04:47:25;;;;;;;14.30;9.30;;;;;;;0.65;90.14;98280.27;105917;1280;23449;-76
2022/01/17 04:49:52;;;;;;;15.30;10.40;;;;;;;0.66;90.23;98276.05;105674;1278;138394;-77
2022/01/17 04:52:18;;;;;;;19.20;11.40;;;;;;;0.67;90.28;98268.60;106158;1277;22555;-76
2022/01/17 04:54:51;;;;;;;20.80;12.10;;;;;;;0.67;90.29;98271.58;105886;1277;137780;-76
2022/01/17 04:57:18;;;;;;;21.30;12.60;;;;;;;0.67;90.19;98261.19;105927;1277;24116;-76
2022/01/17 04:59:44;;;;;;;16.80;12.10;;;;;;;0.67;90.15;98247.08;105972;1277;22731;-75
2022/01/17 05:02:10;;;;;;;17.90;12.30;;;;;;;0.68;90.22;98248.59;105918;1277;138307;-75
2022/01/17 05:04:37;;;;;;;20.30;11.50;;;;;;;0.69;90.18;98231.29;105771;1277;24554;-76
2022/01/17 05:07:05;;;;;;;17.80;11.70;;;;;;;0.71;90.18;98231.84;105750;1278;137685;-76
2022/01/17 05:09:32;;;;;;;20.70;12.50;;;;;;;0.72;90.07;98229.72;105773;1277;25363;-76
2022/01/17 05:11:59;;;;;;;20.50;11.60;;;;;;;0.72;89.86;98229.00;105994;1277;23996;-76
2022/01/17 05:14:26;;;;;;;20.40;12.80;;;;;;;0.74;89.77;98217.89;105735;1277;138450;-76
2022/01/17 05:17:01;;;;;;;19.20;11.90;;;;;;;0.77;89.79;98213.42;105998;1277;23957;-76
2022/01/17 05:22:12;;;;;;;19.50;11.10;;;;;;;0.80;89.42;98203.70;105944;1277;22559;-76
2022/01/17 05:24:38;;;;;;;19.20;11.90;;;;;;;0.81;89.38;98191.66;105747;1277;138299;-76
2022/01/17 05:27:05;;;;;;;19.90;11.00;;;;;;;0.82;89.41;98201.50;105918;1277;22554;-76
2022/01/17 05:29:31;;;;;;;18.90;11.50;;;;;;;0.84;89.24;98194.80;105814;1277;25271;-78
2022/01/17 05:31:57;;;;;;;17.60;10.30;;;;;;;0.87;89.02;98196.48;105536;1280;138447;-75
2022/01/17 05:34:23;;;;;;;20.90;11.20;;;;;;;0.88;88.96;98193.69;105784;1280;22595;-75
2022/01/17 05:36:50;;;;;;;19.80;12.00;;;;;;;0.87;88.96;98181.18;105728;1280;138642;-75
2022/01/17 05:39:16;;;;;;;22.20;12.80;;;;;;;0.88;88.94;98176.95;105776;1280;24271;-75
2022/01/17 05:41:42;;;;;;;20.70;11.40;;;;;;;0.89;89.06;98168.46;105927;1277;22549;-76
2022/01/17 05:44:09;;;;;;;16.40;10.00;;;;;;;0.90;88.93;98167.60;106057;1277;137864;-76
2022/01/17 05:46:35;;;;;;;19.00;11.40;;;;;;;0.91;88.75;98164.65;105841;1277;23844;-75
2022/01/17 05:49:01;;;;;;;17.10;9.50;;;;;;;0.91;88.85;98168.20;105944;1280;137771;-76
2022/01/17 05:51:27;;;;;;;19.30;10.90;;;;;;;0.92;88.47;98163.09;105976;1277;22558;-76
2022/01/17 05:53:53;;;;;;;18.40;11.20;;;;;;;0.94;88.48;98164.09;105828;1277;22781;-78
2022/01/17 05:56:20;;;;;;;15.50;9.70;;;;;;;0.96;88.51;98155.13;105472;1280;138803;-78
2022/01/17 05:58:46;;;;;;;16.90;9.70;;;;;;;0.98;88.33;98145.08;105851;1277;24980;-76
2022/01/17 06:01:14;;;;;;;15.50;9.40;;;;;;;1.00;88.48;98145.39;105818;1277;137723;-76
2022/01/17 06:03:40;;;;;;;17.60;10.10;;;;;;;1.01;88.35;98137.92;105956;1277;24306;-76
2022/01/17 06:06:21;;;;;;;16.80;11.00;;;;;;;1.01;88.18;98140.33;105860;1277;22719;-76
2022/01/17 06:08:47;;;;;;;19.10;10.90;;;;;;;1.04;88.28;98144.89;105783;1277;138245;-76
2022/01/17 06:11:14;;;;;;;18.10;10.20;;;;;;;1.05;88.58;98143.25;105900;1277;25257;-76
2022/01/17 06:13:40;;;;;;;18.40;10.10;;;;;;;1.05;88.53;98147.17;105516;1278;137959;-76
2022/01/17 06:16:06;;;;;;;16.30;10.10;;;;;;;1.05;88.38;98145.56;105712;1277;24498;-76
2022/01/17 06:18:33;;;;;;;20.40;10.80;;;;;;;1.04;88.34;98141.80;105885;1277;137651;-76
2022/01/17 06:20:59;;;;;;;20.30;11.90;;;;;;;1.03;88.29;98151.40;105760;1278;23156;-76
2022/01/17 06:23:25;;;;;;;21.90;11.00;;;;;;;1.03;88.23;98142.59;105911;1277;22730;-76
2022/01/17 06:25:51;;;;;;;22.50;11.60;;;;;;;1.05;88.02;98130.63;105638;1278;138972;-76
2022/01/17 06:28:18;;;;;;;16.50;10.00;;;;;;;1.07;88.00;98128.20;106085;1277;23594;-76
2022/01/17 06:30:44;;;;;;;21.20;11.60;;;;;;;1.07;87.76;98112.39;105837;1277;137839;-77
2022/01/17 06:33:11;;;;;;;19.20;11.10;;;;;;;1.09;87.63;98103.85;105775;1277;22947;-76
2022/01/17 06:35:37;;;;;;;16.50;9.80;;;;;;;1.10;87.38;98092.05;106041;1277;22573;-76
2022/01/17 06:38:03;;;;;;;16.40;9.10;;;;;;;1.12;87.22;98069.99;105874;1280;138375;-76
2022/01/17 06:40:30;;;;;;;22.80;11.50;;;;;;;1.16;86.95;98069.46;105915;1277;25330;-74
2022/01/17 06:42:56;;;;;;;16.80;9.70;;;;;;;1.20;86.75;98074.55;105786;1277;138094;-76
2022/01/17 06:45:22;;;;;;;18.40;9.40;;;;;;;1.21;86.63;98076.52;105870;1277;22781;-75
2022/01/17 06:47:49;;;;;;;17.80;10.90;;;;;;;1.23;86.64;98089.36;105865;1277;25258;-76
2022/01/17 06:50:15;;;;;;;16.20;10.00;;;;;;;1.25;86.80;98088.76;105817;1277;139237;-76
2022/01/17 06:52:41;;;;;;;16.20;9.40;;;;;;;1.26;86.67;98075.11;105940;1276;22573;-76
2022/01/17 06:55:09;;;;;;;15.90;9.50;;;;;;;1.29;86.63;98076.29;105807;1280;138089;-76
2022/01/17 06:57:36;;;;;;;19.90;9.50;;;;;;;1.31;86.84;98062.43;105770;1277;25660;-76
2022/01/17 07:00:11;;;;;;;16.00;8.40;;;;;;;1.31;86.82;98050.63;105946;1277;25408;-78
2022/01/17 07:02:38;;;;;;;17.20;10.10;;;;;;;1.29;86.54;98035.42;105891;1277;137267;-75
2022/01/17 07:05:05;;;;;;;16.70;9.80;;;;;;;1.29;86.81;98031.05;105969;1277;24276;-76
2022/01/17 07:07:31;;;;;;;16.20;9.50;;;;;;;1.28;86.81;98027.58;105799;1276;138427;-75
2022/01/17 07:09:57;;;;;;;16.40;9.50;;;;;;;1.28;86.92;98015.00;106152;1277;22569;-76
2022/01/17 07:12:24;;;;;;;16.50;9.80;;;;;;;1.29;87.11;98010.60;106531;1277;22552;-76
2022/01/17 07:14:50;;;;;;;14.60;8.70;;;;;;;1.29;86.99;98028.00;105660;1279;137598;-76
2022/01/17 07:17:16;;;;;;;16.70;9.30;;;;;;;1.27;87.06;98039.54;106022;1279;23083;-76
2022/01/17 07:19:43;;;;;;;16.20;8.80;;;;;;;1.25;87.35;98052.04;105665;1278;138570;-76
2022/01/17 07:22:09;;;;;;;13.80;7.40;;;;;;;1.24;87.57;98067.38;105974;1279;24396;-76
2022/01/17 07:24:37;;;;;;;18.70;8.40;;;;;;;1.23;87.62;98084.67;106046;1277;137823;-76
2022/01/17 07:27:03;;;;;;;16.40;8.70;;;;;;;1.22;87.96;98090.55;106139;1277;22575;-76
2022/01/17 07:29:30;;;;;;;15.00;8.50;;;;;;;1.19;88.12;98102.90;106075;1277;23818;-76
2022/01/17 07:31:57;;;;;;;15.40;8.60;;;;;;;1.15;88.49;98103.70;106011;1277;138180;-76
2022/01/17 07:34:24;;;;;;;14.30;8.30;;;;;;;1.12;88.46;98095.76;106016;1277;22828;-76
2022/01/17 07:36:50;;;;;;;17.00;8.70;;;;;;;1.09;88.60;98081.20;105855;1278;137595;-76
2022/01/17 07:39:16;;;;;;;13.90;7.40;;;;;;;1.05;88.73;98051.02;106120;1278;22613;-76
2022/01/17 07:41:43;;;;;;;14.30;8.70;;;;;;;1.01;89.04;98027.05;105942;1278;24295;-76
2022/01/17 07:44:19;;;;;;;15.40;8.60;;;;;;;0.97;89.04;98009.54;105862;1277;138240;-76
2022/01/17 07:46:54;;;;;;;13.80;9.00;;;;;;;0.92;89.24;98005.59;105966;1277;24225;-76
2022/01/17 07:49:23;;;;;;;11.20;7.40;;;;;;;0.90;89.44;98000.50;105997;1277;138076;-76
2022/01/17 07:51:56;;;;;;;16.50;8.10;;;;;;;0.88;89.67;97979.87;106000;1278;25338;-76
2022/01/17 07:54:24;;;;;;;13.30;7.90;;;;;;;0.86;89.81;97973.20;106050;1277;22844;-76
2022/01/17 07:56:50;;;;;;;15.50;8.60;;;;;;;0.83;90.21;97976.02;105885;1280;137958;-76
2022/01/17 07:59:17;;;;;;;15.50;8.10;;;;;;;0.84;90.34;97967.00;106130;1277;22724;-76
2022/01/17 08:01:43;;;;;;;16.90;8.90;;;;;;;0.85;90.36;97956.13;105978;1278;137878;-76
2022/01/17 08:04:10;;;;;;;14.60;8.50;;;;;;;0.85;90.59;97940.29;106557;1277;22583;-76
2022/01/17 08:06:39;;;;;;;20.40;9.90;;;;;;;0.85;90.71;97939.74;105947;1277;138330;-76
2022/01/17 08:09:18;;;;;;;15.90;8.30;;;;;;;0.85;91.11;97919.84;106113;1277;25513;-76
2022/01/17 08:11:45;;;;;;;16.50;8.90;;;;;;;0.88;91.12;97909.88;106028;1277;24316;-76
2022/01/17 08:14:12;;;;;;;17.50;8.50;;;;;;;0.91;91.07;97897.62;105881;1277;138146;-76
2022/01/17 08:16:39;;;;;;;16.50;10.50;;;;;;;0.93;91.08;97868.21;106210;1278;23284;-77
2022/01/17 08:19:05;;;;;;;18.90;10.60;;;;;;;0.95;91.11;97870.33;105847;1277;138479;-75
2022/01/17 08:21:31;;;;;;;15.10;9.50;;;;;;;0.98;91.14;97865.71;106656;1277;22629;-76
2022/01/17 08:24:00;;;;;;;15.10;9.20;;;;;;;1.00;91.09;97870.30;106344;1277;138535;-76
2022/01/17 08:26:27;;;;;;;20.10;10.00;;;;;;;1.02;91.31;97865.73;106111;1277;22562;-76
2022/01/17 08:28:54;;;;;;;14.70;9.50;;;;;;;1.04;91.20;97867.82;106233;1277;24404;-76
2022/01/17 08:31:20;;;;;;;16.20;9.60;;;;;;;1.05;91.22;97891.42;106087;1277;137437;-77
2022/01/17 08:33:46;;;;;;;18.90;9.90;;;;;;;1.06;90.96;97903.77;106040;1277;23025;-77
2022/01/17 08:36:14;;;;;;;14.10;8.00;;;;;;;1.10;91.27;97897.59;105881;1277;138566;-76
2022/01/17 08:38:41;;;;;;;14.10;8.60;;;;;;;1.14;91.16;97876.33;105805;1277;22569;-76
2022/01/17 08:41:07;;;;;;;13.90;9.10;;;;;;;1.18;91.10;97858.35;106056;1277;22603;-76
2022/01/17 08:43:33;;;;;;;21.90;10.40;;;;;;;1.20;91.00;97861.91;106254;1277;137508;-76
2022/01/17 08:46:00;;;;;;;16.30;9.10;;;;;;;1.23;90.92;97854.54;106188;1276;22545;-76
2022/01/17 08:48:26;;;;;;;15.20;8.40;;;;;;;1.26;90.69;97857.02;105946;1278;138424;-76
2022/01/17 08:50:52;;;;;;;17.00;9.30;;;;;;;1.30;90.46;97847.21;105874;1279;24788;-77
2022/01/17 08:53:19;;;;;;;13.50;7.60;;;;;;;1.34;90.34;97830.60;105683;1280;24283;-77
2022/01/17 08:55:46;;;;;;;14.60;8.60;;;;;;;1.36;90.09;97825.33;105756;1279;137557;-79
2022/01/17 08:58:14;;;;;;;15.00;8.70;;;;;;;1.39;90.09;97822.62;105963;1277;23360;-77
2022/01/17 09:00:41;;;;;;;14.40;9.10;;;;;;;1.42;89.97;97806.44;105857;1279;138473;-77
2022/01/17 09:03:08;;;;;;;14.80;8.30;;;;;;;1.46;89.78;97814.25;105950;1280;22695;-78
2022/01/17 09:05:36;;;;;;;14.70;7.80;;;;;;;1.48;89.53;97797.24;106000;1277;24302;-79
2022/01/17 09:08:04;;;;;;;13.40;7.30;;;;;;;1.51;89.58;97776.29;105888;1278;137711;-77
2022/01/17 09:10:31;;;;;;;15.90;8.80;;;;;;;1.54;89.29;97790.45;105943;1277;22730;-77
2022/01/17 09:12:58;;;;;;;15.10;8.90;;;;;;;1.58;89.19;97777.59;106358;1277;138686;-77
2022/01/17 09:15:25;;;;;;;14.00;8.20;;;;;;;1.61;89.25;97766.90;106085;1277;22583;-77
2022/01/17 09:17:51;;;;;;;16.70;8.70;;;;;;;1.63;89.03;97764.66;105989;1277;139174;-78
2022/01/17 09:20:34;;;;;;;19.00;8.50;;;;;;;1.62;89.25;97762.73;105686;1280;22573;-78
2022/01/17 09:23:04;;;;;;;17.00;9.00;;;;;;;1.60;89.29;97759.63;106169;1277;22600;-77
2022/01/17 09:25:32;;;;;;;12.90;8.00;;;;;;;1.57;89.28;97763.63;106441;1277;138044;-78
2022/01/17 09:27:58;;;;;;;16.30;9.10;;;;;;;1.54;89.48;97777.54;106808;1277;25265;-78
2022/01/17 09:30:25;;;;;;;17.00;8.00;;;;;;;1.52;89.52;97773.70;106564;1277;137994;-78
2022/01/17 09:32:52;;;;;;;14.50;8.40;;;;;;;1.49;89.66;97770.63;106045;1277;22552;-78
2022/01/17 09:35:19;;;;;;;15.20;9.00;;;;;;;1.47;89.80;97762.78;105992;1277;22711;-78
2022/01/17 09:37:45;;;;;;;18.00;9.20;;;;;;;1.45;89.87;97751.55;106662;1277;138911;-78
2022/01/17 09:40:12;;;;;;;15.90;8.60;;;;;;;1.43;90.12;97741.08;106211;1277;22542;-77
2022/01/17 09:42:54;;;;;;;14.30;7.70;;;;;;;1.41;90.13;97733.55;105958;1278;137873;-77
2022/01/17 09:45:22;;;;;;;12.80;8.30;;;;;;;1.37;90.41;97735.23;106118;1276;24268;-76
2022/01/17 09:47:50;;;;;;;17.70;8.20;;;;;;;1.33;90.49;97730.35;105415;1277;540549;-77
2022/01/17 09:50:31;;;;;;;15.80;8.90;;;;;;;1.32;90.49;97718.77;106118;1278;25503;-77
2022/01/17 09:52:59;;;;;;;13.80;8.40;;;;;;;1.30;90.57;97699.50;105915;1278;22618;-77
2022/01/17 09:55:27;;;;;;;13.50;7.80;;;;;;;1.26;90.76;97710.62;106112;1280;137451;-77
2022/01/17 09:58:02;;;;;;;17.20;8.40;;;;;;;1.24;90.70;97718.95;106168;1277;22570;-78
2022/01/17 10:00:32;;;;;;;16.10;8.70;;;;;;;1.21;90.87;97713.92;106190;1277;139068;-79
2022/01/17 10:03:02;;;;;;;14.10;7.40;;;;;;;1.21;90.96;97706.63;106132;1277;23913;-77
2022/01/17 10:05:29;;;;;;;16.40;8.40;;;;;;;1.22;90.93;97705.84;106251;1277;23959;-79
2022/01/17 10:08:15;;;;;;;13.70;7.30;;;;;;;1.21;91.15;97694.81;106047;1277;137312;-79
2022/01/17 10:10:52;;;;;;;16.90;8.40;;;;;;;1.21;91.49;97681.95;106335;1277;31514;-79
2022/01/17 10:13:24;;;;;;;15.20;8.30;;;;;;;1.21;91.39;97677.25;106111;1277;138444;-79
2022/01/17 10:16:01;;;;;;;15.40;7.50;;;;;;;1.23;91.78;97667.38;106325;1275;22580;-80
2022/01/17 10:18:48;;;;;;;12.30;6.10;;;;;;;1.26;91.58;97661.86;106195;1277;138577;-80
2022/01/17 10:21:50;;;;;;;13.50;7.50;;;;;;;1.28;91.73;97652.58;106391;1277;30034;-80
2022/01/17 10:34:59;;;;;;;10.00;6.70;;;;;;;1.36;92.03;97637.72;106187;1277;22704;-80
2022/01/17 10:37:29;;;;;;;10.10;6.30;;;;;;;1.39;92.15;97635.08;106209;1277;138147;-80
2022/01/17 10:40:15;;;;;;;9.10;6.20;;;;;;;1.44;92.13;97630.95;106356;1277;22563;-80
2022/01/17 10:42:47;;;;;;;6.40;5.00;;;;;;;1.48;92.00;97608.98;106248;1277;137665;-80
2022/01/17 10:45:16;;;;;;;9.10;5.70;;;;;;;1.49;91.81;97613.11;106374;1277;22574;-80
2022/01/17 10:47:44;;;;;;;10.00;6.40;;;;;;;1.48;91.85;97626.62;106104;1280;22556;-80
2022/01/17 10:50:13;;;;;;;10.10;5.60;;;;;;;1.49;91.92;97613.04;106358;1277;138414;-81
2022/01/17 10:52:46;;;;;;;11.20;5.80;;;;;;;1.51;91.97;97601.59;106216;1277;24516;-80
2022/01/17 10:55:26;;;;;;;10.70;6.60;;;;;;;1.53;91.82;97607.95;106203;1277;137628;-81
2022/01/17 10:58:05;;;;;;;10.40;6.10;;;;;;;1.53;91.92;97609.44;106419;1277;22673;-82
2022/01/17 11:00:35;;;;;;;10.00;6.30;;;;;;;1.52;91.92;97581.21;106191;1277;139029;-83
2022/01/17 11:03:07;;;;;;;10.10;6.50;;;;;;;1.52;91.89;97598.00;106305;1277;22563;-82
2022/01/17 11:05:39;;;;;;;7.30;5.20;;;;;;;1.54;92.02;97595.91;106302;1277;22596;-83
2022/01/17 11:08:05;;;;;;;10.60;5.10;;;;;;;1.53;91.97;97593.06;106307;1277;137295;-82
2022/01/17 11:10:43;;;;;;;12.20;7.40;;;;;;;1.53;92.10;97597.19;106121;1277;25513;-80
2022/01/17 11:13:12;;;;;;;8.70;5.80;;;;;;;1.50;92.02;97592.51;106233;1277;138046;-81
2022/01/17 11:15:40;;;;;;;14.10;7.10;;;;;;;1.49;91.91;97589.52;106443;1277;25519;-80
2022/01/17 11:18:23;;;;;;;12.10;6.50;;;;;;;1.48;91.82;97591.38;106195;1277;138616;-82
2022/01/17 11:21:06;;;;;;;7.30;5.00;;;;;;;1.46;91.82;97603.09;106097;1277;22580;-83
2022/01/17 11:23:32;;;;;;;11.40;6.50;;;;;;;1.46;91.77;97590.34;106508;1277;22592;-80
2022/01/17 11:25:58;;;;;;;10.80;6.40;;;;;;;1.46;92.01;97577.59;106019;1277;138721;-80
2022/01/17 11:28:29;;;;;;;14.00;7.10;;;;;;;1.49;92.12;97567.52;106445;1277;24082;-81
2022/01/17 11:30:59;;;;;;;10.20;5.60;;;;;;;1.51;92.22;97569.53;106253;1277;137414;-81
2022/01/17 11:33:27;;;;;;;10.80;5.90;;;;;;;1.52;92.15;97563.50;106356;1277;27072;-80
2022/01/17 11:35:55;;;;;;;8.70;6.10;;;;;;;1.53;92.11;97558.05;106014;1277;137915;-80
2022/01/17 11:38:31;;;;;;;9.50;5.80;;;;;;;1.55;92.17;97551.69;106048;1280;24338;-81
2022/01/17 11:40:59;;;;;;;9.70;5.70;;;;;;;1.56;92.11;97551.57;106348;1277;24092;-80
2022/01/17 11:43:35;;;;;;;9.40;5.50;;;;;;;1.57;92.13;97561.25;105994;1277;137317;-81
2022/01/17 11:46:25;;;;;;;11.30;5.10;;;;;;;1.56;92.25;97548.10;106218;1277;25386;-80
2022/01/17 11:48:52;;;;;;;11.00;6.40;;;;;;;1.56;92.27;97548.71;106049;1277;138063;-81
2022/01/17 11:51:19;;;;;;;11.90;6.50;;;;;;;1.55;92.28;97552.39;106432;1277;22557;-81
2022/01/17 11:53:54;;;;;;;10.30;6.00;;;;;;;1.56;92.24;97555.61;106225;1276;22559;-81
2022/01/17 11:56:41;;;;;;;8.80;5.40;;;;;;;1.57;92.18;97546.60;106060;1277;137149;-81